sensor_id;sensor_type;location;lat;lon;timestamp;P1;durP1;ratioP1;P2;durP2;ratioP2
37455;SDS011;23316;50.718;7.328;2023-02-01T00:01:30;19.17;;;6.63;;
37455;SDS011;23316;50.718;7.328;2023-02-01T00:03:57;16.80;;;6.72;;
37455;SDS011;23316;50.718;7.328;2023-02-01T00:06:24;18.15;;;6.20;;
37455;SDS011;23316;50.718;7.328;2023-02-01T00:08:52;21.80;;;6.38;;
37455;SDS011;23316;50.718;7.328;2023-02-01T00:11:21;15.95;;;6.55;;
37455;SDS011;23316;50.718;7.328;2023-02-01T00:13:50;15.80;;;6.03;;
37455;SDS011;23316;50.718;7.328;2023-02-01T00:16:18;15.65;;;6.35;;
37455;SDS011;23316;50.718;7.328;2023-02-01T00:18:47;17.80;;;6.88;;
37455;SDS011;23316;50.718;7.328;2023-02-01T00:21:17;19.17;;;6.05;;
37455;SDS011;23316;50.718;7.328;2023-02-01T00:23:45;19.73;;;7.03;;
37455;SDS011;23316;50.718;7.328;2023-02-01T00:26:13;21.45;;;6.38;;
37455;SDS011;23316;50.718;7.328;2023-02-01T00:28:44;17.90;;;6.32;;
37455;SDS011;23316;50.718;7.328;2023-02-01T00:31:12;14.73;;;5.85;;
37455;SDS011;23316;50.718;7.328;2023-02-01T00:33:40;23.10;;;6.43;;
37455;SDS011;23316;50.718;7.328;2023-02-01T00:36:13;17.63;;;6.35;;
37455;SDS011;23316;50.718;7.328;2023-02-01T00:38:40;17.17;;;6.25;;
37455;SDS011;23316;50.718;7.328;2023-02-01T00:41:09;23.52;;;6.47;;
37455;SDS011;23316;50.718;7.328;2023-02-01T00:43:38;19.17;;;6.20;;
37455;SDS011;23316;50.718;7.328;2023-02-01T00:46:07;17.58;;;5.60;;
37455;SDS011;23316;50.718;7.328;2023-02-01T00:48:34;24.13;;;6.45;;
37455;SDS011;23316;50.718;7.328;2023-02-01T00:51:03;26.10;;;6.38;;
37455;SDS011;23316;50.718;7.328;2023-02-01T00:53:31;13.27;;;5.78;;
37455;SDS011;23316;50.718;7.328;2023-02-01T00:55:59;20.23;;;5.88;;
37455;SDS011;23316;50.718;7.328;2023-02-01T00:58:27;18.42;;;5.88;;
37455;SDS011;23316;50.718;7.328;2023-02-01T01:01:01;18.17;;;4.95;;
37455;SDS011;23316;50.718;7.328;2023-02-01T01:03:30;22.20;;;6.10;;
37455;SDS011;23316;50.718;7.328;2023-02-01T01:06:00;20.15;;;5.72;;
37455;SDS011;23316;50.718;7.328;2023-02-01T01:08:28;19.27;;;5.10;;
37455;SDS011;23316;50.718;7.328;2023-02-01T01:10:56;19.25;;;4.95;;
37455;SDS011;23316;50.718;7.328;2023-02-01T01:13:23;15.75;;;4.75;;
37455;SDS011;23316;50.718;7.328;2023-02-01T01:15:50;20.45;;;4.95;;
37455;SDS011;23316;50.718;7.328;2023-02-01T01:18:17;27.55;;;4.90;;
37455;SDS011;23316;50.718;7.328;2023-02-01T01:20:47;22.08;;;4.70;;
37455;SDS011;23316;50.718;7.328;2023-02-01T01:23:14;22.67;;;4.75;;
37455;SDS011;23316;50.718;7.328;2023-02-01T01:25:41;19.25;;;3.97;;
37455;SDS011;23316;50.718;7.328;2023-02-01T01:28:08;20.52;;;4.28;;
37455;SDS011;23316;50.718;7.328;2023-02-01T01:30:35;16.58;;;3.75;;
37455;SDS011;23316;50.718;7.328;2023-02-01T01:33:03;19.10;;;3.88;;
37455;SDS011;23316;50.718;7.328;2023-02-01T01:35:30;20.10;;;3.92;;
37455;SDS011;23316;50.718;7.328;2023-02-01T01:38:00;17.15;;;3.83;;
37455;SDS011;23316;50.718;7.328;2023-02-01T01:40:27;11.45;;;3.15;;
37455;SDS011;23316;50.718;7.328;2023-02-01T01:42:56;18.45;;;4.97;;
37455;SDS011;23316;50.718;7.328;2023-02-01T01:45:25;14.88;;;3.90;;
37455;SDS011;23316;50.718;7.328;2023-02-01T01:47:56;19.80;;;3.83;;
37455;SDS011;23316;50.718;7.328;2023-02-01T01:50:26;21.70;;;3.85;;
37455;SDS011;23316;50.718;7.328;2023-02-01T01:52:56;18.67;;;3.92;;
37455;SDS011;23316;50.718;7.328;2023-02-01T01:55:28;25.92;;;4.38;;
37455;SDS011;23316;50.718;7.328;2023-02-01T01:57:58;19.98;;;4.68;;
37455;SDS011;23316;50.718;7.328;2023-02-01T02:00:31;25.58;;;3.72;;
37455;SDS011;23316;50.718;7.328;2023-02-01T02:03:00;21.73;;;4.72;;
37455;SDS011;23316;50.718;7.328;2023-02-01T02:05:31;22.65;;;3.72;;
37455;SDS011;23316;50.718;7.328;2023-02-01T02:08:00;16.20;;;3.95;;
37455;SDS011;23316;50.718;7.328;2023-02-01T02:10:27;23.55;;;4.35;;
37455;SDS011;23316;50.718;7.328;2023-02-01T02:13:09;18.95;;;4.50;;
37455;SDS011;23316;50.718;7.328;2023-02-01T02:15:37;11.50;;;3.20;;
37455;SDS011;23316;50.718;7.328;2023-02-01T02:18:10;12.40;;;3.10;;
37455;SDS011;23316;50.718;7.328;2023-02-01T02:20:45;17.35;;;3.63;;
37455;SDS011;23316;50.718;7.328;2023-02-01T02:26:39;15.18;;;3.58;;
37455;SDS011;23316;50.718;7.328;2023-02-01T02:29:34;13.02;;;3.72;;
37455;SDS011;23316;50.718;7.328;2023-02-01T02:35:36;18.23;;;3.60;;
37455;SDS011;23316;50.718;7.328;2023-02-01T02:38:14;16.38;;;3.60;;
37455;SDS011;23316;50.718;7.328;2023-02-01T02:40:47;16.52;;;4.18;;
37455;SDS011;23316;50.718;7.328;2023-02-01T02:43:20;16.45;;;4.07;;
37455;SDS011;23316;50.718;7.328;2023-02-01T02:46:09;21.67;;;3.95;;
37455;SDS011;23316;50.718;7.328;2023-02-01T02:49:01;15.93;;;4.50;;
37455;SDS011;23316;50.718;7.328;2023-02-01T02:54:25;12.95;;;3.38;;
37455;SDS011;23316;50.718;7.328;2023-02-01T02:57:13;18.00;;;3.40;;
37455;SDS011;23316;50.718;7.328;2023-02-01T03:00:00;15.73;;;4.20;;
37455;SDS011;23316;50.718;7.328;2023-02-01T03:02:47;16.20;;;4.68;;
37455;SDS011;23316;50.718;7.328;2023-02-01T03:05:33;19.52;;;4.25;;
37455;SDS011;23316;50.718;7.328;2023-02-01T03:08:03;14.32;;;3.70;;
37455;SDS011;23316;50.718;7.328;2023-02-01T03:10:40;18.10;;;4.35;;
37455;SDS011;23316;50.718;7.328;2023-02-01T03:13:15;19.13;;;4.47;;
37455;SDS011;23316;50.718;7.328;2023-02-01T03:15:48;25.33;;;4.65;;
37455;SDS011;23316;50.718;7.328;2023-02-01T03:18:24;20.73;;;4.95;;
37455;SDS011;23316;50.718;7.328;2023-02-01T03:20:56;20.15;;;5.00;;
37455;SDS011;23316;50.718;7.328;2023-02-01T03:23:32;15.70;;;3.90;;
37455;SDS011;23316;50.718;7.328;2023-02-01T03:26:02;25.33;;;5.70;;
37455;SDS011;23316;50.718;7.328;2023-02-01T03:28:32;23.48;;;4.55;;
37455;SDS011;23316;50.718;7.328;2023-02-01T03:31:02;29.48;;;4.63;;
37455;SDS011;23316;50.718;7.328;2023-02-01T03:33:30;19.35;;;4.90;;
37455;SDS011;23316;50.718;7.328;2023-02-01T03:36:01;12.77;;;4.10;;
37455;SDS011;23316;50.718;7.328;2023-02-01T03:38:39;20.15;;;4.30;;
37455;SDS011;23316;50.718;7.328;2023-02-01T03:41:15;23.20;;;4.25;;
37455;SDS011;23316;50.718;7.328;2023-02-01T03:43:49;19.08;;;4.82;;
37455;SDS011;23316;50.718;7.328;2023-02-01T03:46:22;25.17;;;4.80;;
37455;SDS011;23316;50.718;7.328;2023-02-01T03:48:53;20.63;;;4.40;;
37455;SDS011;23316;50.718;7.328;2023-02-01T03:51:21;25.20;;;5.68;;
37455;SDS011;23316;50.718;7.328;2023-02-01T03:53:52;21.75;;;5.07;;
37455;SDS011;23316;50.718;7.328;2023-02-01T03:56:21;26.38;;;4.25;;
37455;SDS011;23316;50.718;7.328;2023-02-01T03:58:51;22.52;;;4.38;;
37455;SDS011;23316;50.718;7.328;2023-02-01T04:01:25;15.10;;;4.40;;
37455;SDS011;23316;50.718;7.328;2023-02-01T04:03:54;22.33;;;5.55;;
37455;SDS011;23316;50.718;7.328;2023-02-01T04:06:23;21.45;;;5.07;;
37455;SDS011;23316;50.718;7.328;2023-02-01T04:08:51;19.95;;;4.55;;
37455;SDS011;23316;50.718;7.328;2023-02-01T04:11:19;25.10;;;5.10;;
37455;SDS011;23316;50.718;7.328;2023-02-01T04:13:46;23.88;;;4.15;;
37455;SDS011;23316;50.718;7.328;2023-02-01T04:16:14;21.92;;;5.18;;
37455;SDS011;23316;50.718;7.328;2023-02-01T04:18:41;25.20;;;4.97;;
37455;SDS011;23316;50.718;7.328;2023-02-01T04:21:08;19.98;;;4.43;;
37455;SDS011;23316;50.718;7.328;2023-02-01T04:23:35;20.85;;;4.63;;
37455;SDS011;23316;50.718;7.328;2023-02-01T04:26:04;25.27;;;5.28;;
37455;SDS011;23316;50.718;7.328;2023-02-01T04:28:32;24.67;;;4.72;;
37455;SDS011;23316;50.718;7.328;2023-02-01T04:30:59;22.15;;;4.68;;
37455;SDS011;23316;50.718;7.328;2023-02-01T04:33:26;22.02;;;4.68;;
37455;SDS011;23316;50.718;7.328;2023-02-01T04:35:53;19.67;;;4.30;;
37455;SDS011;23316;50.718;7.328;2023-02-01T04:38:21;20.98;;;4.57;;
37455;SDS011;23316;50.718;7.328;2023-02-01T04:40:48;26.98;;;5.15;;
37455;SDS011;23316;50.718;7.328;2023-02-01T04:43:17;25.90;;;4.70;;
37455;SDS011;23316;50.718;7.328;2023-02-01T04:45:47;20.90;;;5.60;;
37455;SDS011;23316;50.718;7.328;2023-02-01T04:48:14;25.35;;;5.30;;
37455;SDS011;23316;50.718;7.328;2023-02-01T04:50:42;24.52;;;5.28;;
37455;SDS011;23316;50.718;7.328;2023-02-01T04:53:12;24.27;;;5.32;;
37455;SDS011;23316;50.718;7.328;2023-02-01T04:55:40;25.65;;;5.18;;
37455;SDS011;23316;50.718;7.328;2023-02-01T04:58:08;22.50;;;5.28;;
37455;SDS011;23316;50.718;7.328;2023-02-01T05:00:37;20.08;;;4.90;;
37455;SDS011;23316;50.718;7.328;2023-02-01T05:03:04;21.83;;;5.28;;
37455;SDS011;23316;50.718;7.328;2023-02-01T05:05:31;17.85;;;5.10;;
37455;SDS011;23316;50.718;7.328;2023-02-01T05:07:59;29.08;;;5.35;;
37455;SDS011;23316;50.718;7.328;2023-02-01T05:10:26;35.53;;;5.93;;
37455;SDS011;23316;50.718;7.328;2023-02-01T05:12:53;21.95;;;4.70;;
37455;SDS011;23316;50.718;7.328;2023-02-01T05:15:40;17.92;;;4.50;;
37455;SDS011;23316;50.718;7.328;2023-02-01T05:18:07;20.40;;;5.07;;
37455;SDS011;23316;50.718;7.328;2023-02-01T05:20:34;31.77;;;5.10;;
37455;SDS011;23316;50.718;7.328;2023-02-01T05:23:01;22.92;;;4.90;;
37455;SDS011;23316;50.718;7.328;2023-02-01T05:25:28;23.33;;;4.30;;
37455;SDS011;23316;50.718;7.328;2023-02-01T05:27:56;20.90;;;4.93;;
37455;SDS011;23316;50.718;7.328;2023-02-01T05:30:23;22.00;;;4.32;;
37455;SDS011;23316;50.718;7.328;2023-02-01T05:32:52;14.23;;;3.95;;
37455;SDS011;23316;50.718;7.328;2023-02-01T05:35:19;32.20;;;5.80;;
37455;SDS011;23316;50.718;7.328;2023-02-01T05:37:46;16.80;;;3.92;;
37455;SDS011;23316;50.718;7.328;2023-02-01T05:40:15;26.33;;;4.28;;
37455;SDS011;23316;50.718;7.328;2023-02-01T05:42:42;23.52;;;4.57;;
37455;SDS011;23316;50.718;7.328;2023-02-01T05:45:09;30.02;;;5.03;;
37455;SDS011;23316;50.718;7.328;2023-02-01T05:47:37;24.42;;;4.57;;
37455;SDS011;23316;50.718;7.328;2023-02-01T05:50:06;23.05;;;4.32;;
37455;SDS011;23316;50.718;7.328;2023-02-01T05:52:34;23.75;;;3.75;;
37455;SDS011;23316;50.718;7.328;2023-02-01T05:55:01;22.33;;;4.57;;
37455;SDS011;23316;50.718;7.328;2023-02-01T05:57:29;21.55;;;3.63;;
37455;SDS011;23316;50.718;7.328;2023-02-01T05:59:56;19.60;;;3.38;;
37455;SDS011;23316;50.718;7.328;2023-02-01T06:02:23;19.05;;;3.92;;
37455;SDS011;23316;50.718;7.328;2023-02-01T06:04:50;14.60;;;3.53;;
37455;SDS011;23316;50.718;7.328;2023-02-01T06:07:19;21.77;;;4.22;;
37455;SDS011;23316;50.718;7.328;2023-02-01T06:09:47;21.52;;;3.55;;
37455;SDS011;23316;50.718;7.328;2023-02-01T06:12:14;19.25;;;3.50;;
37455;SDS011;23316;50.718;7.328;2023-02-01T06:14:41;22.98;;;3.65;;
37455;SDS011;23316;50.718;7.328;2023-02-01T06:17:09;19.02;;;3.80;;
37455;SDS011;23316;50.718;7.328;2023-02-01T06:19:36;24.77;;;4.60;;
37455;SDS011;23316;50.718;7.328;2023-02-01T06:22:03;19.10;;;3.45;;
37455;SDS011;23316;50.718;7.328;2023-02-01T06:24:33;17.92;;;3.40;;
37455;SDS011;23316;50.718;7.328;2023-02-01T06:27:00;21.73;;;3.33;;
37455;SDS011;23316;50.718;7.328;2023-02-01T06:29:27;16.27;;;3.08;;
37455;SDS011;23316;50.718;7.328;2023-02-01T06:31:55;24.85;;;3.88;;
37455;SDS011;23316;50.718;7.328;2023-02-01T06:34:23;28.73;;;4.63;;
37455;SDS011;23316;50.718;7.328;2023-02-01T06:36:51;21.85;;;3.50;;
37455;SDS011;23316;50.718;7.328;2023-02-01T06:39:20;19.67;;;3.40;;
37455;SDS011;23316;50.718;7.328;2023-02-01T06:41:49;14.55;;;3.15;;
37455;SDS011;23316;50.718;7.328;2023-02-01T06:44:17;16.45;;;3.60;;
37455;SDS011;23316;50.718;7.328;2023-02-01T06:46:46;21.25;;;3.50;;
37455;SDS011;23316;50.718;7.328;2023-02-01T06:49:14;24.75;;;4.22;;
37455;SDS011;23316;50.718;7.328;2023-02-01T06:51:42;18.63;;;3.63;;
37455;SDS011;23316;50.718;7.328;2023-02-01T06:54:10;19.73;;;3.95;;
37455;SDS011;23316;50.718;7.328;2023-02-01T06:56:38;18.80;;;3.00;;
37455;SDS011;23316;50.718;7.328;2023-02-01T06:59:07;21.65;;;3.75;;
37455;SDS011;23316;50.718;7.328;2023-02-01T07:01:36;21.80;;;4.65;;
37455;SDS011;23316;50.718;7.328;2023-02-01T07:04:04;20.15;;;3.90;;
37455;SDS011;23316;50.718;7.328;2023-02-01T07:06:31;20.13;;;3.55;;
37455;SDS011;23316;50.718;7.328;2023-02-01T07:08:59;25.48;;;4.88;;
37455;SDS011;23316;50.718;7.328;2023-02-01T07:11:26;27.42;;;4.60;;
37455;SDS011;23316;50.718;7.328;2023-02-01T07:13:54;22.80;;;3.80;;
37455;SDS011;23316;50.718;7.328;2023-02-01T07:16:22;25.38;;;5.45;;
37455;SDS011;23316;50.718;7.328;2023-02-01T07:18:50;34.35;;;5.32;;
37455;SDS011;23316;50.718;7.328;2023-02-01T07:21:18;35.10;;;4.72;;
37455;SDS011;23316;50.718;7.328;2023-02-01T07:23:45;22.27;;;4.10;;
37455;SDS011;23316;50.718;7.328;2023-02-01T07:26:13;29.52;;;4.07;;
37455;SDS011;23316;50.718;7.328;2023-02-01T07:28:41;40.47;;;6.53;;
37455;SDS011;23316;50.718;7.328;2023-02-01T07:31:09;20.80;;;3.42;;
37455;SDS011;23316;50.718;7.328;2023-02-01T07:33:40;21.70;;;3.90;;
37455;SDS011;23316;50.718;7.328;2023-02-01T07:36:10;20.75;;;3.45;;
37455;SDS011;23316;50.718;7.328;2023-02-01T07:38:39;22.83;;;4.97;;
37455;SDS011;23316;50.718;7.328;2023-02-01T07:41:07;28.40;;;4.22;;
37455;SDS011;23316;50.718;7.328;2023-02-01T07:43:35;21.52;;;3.83;;
37455;SDS011;23316;50.718;7.328;2023-02-01T07:46:03;23.70;;;4.03;;
37455;SDS011;23316;50.718;7.328;2023-02-01T07:48:32;24.58;;;4.28;;
37455;SDS011;23316;50.718;7.328;2023-02-01T07:51:02;31.13;;;4.65;;
37455;SDS011;23316;50.718;7.328;2023-02-01T07:53:30;23.25;;;4.43;;
37455;SDS011;23316;50.718;7.328;2023-02-01T07:55:59;24.13;;;4.20;;
37455;SDS011;23316;50.718;7.328;2023-02-01T07:58:27;24.58;;;4.20;;
37455;SDS011;23316;50.718;7.328;2023-02-01T08:00:54;29.85;;;4.32;;
37455;SDS011;23316;50.718;7.328;2023-02-01T08:03:40;24.42;;;4.28;;
37455;SDS011;23316;50.718;7.328;2023-02-01T08:06:08;25.70;;;3.92;;
37455;SDS011;23316;50.718;7.328;2023-02-01T08:08:36;26.98;;;4.55;;
37455;SDS011;23316;50.718;7.328;2023-02-01T08:11:04;21.60;;;3.70;;
37455;SDS011;23316;50.718;7.328;2023-02-01T08:13:32;21.85;;;3.47;;
37455;SDS011;23316;50.718;7.328;2023-02-01T08:16:00;25.20;;;4.18;;
37455;SDS011;23316;50.718;7.328;2023-02-01T08:18:29;27.05;;;5.20;;
37455;SDS011;23316;50.718;7.328;2023-02-01T08:21:01;34.05;;;4.88;;
37455;SDS011;23316;50.718;7.328;2023-02-01T08:23:32;22.33;;;4.22;;
37455;SDS011;23316;50.718;7.328;2023-02-01T08:26:08;30.13;;;4.65;;
37455;SDS011;23316;50.718;7.328;2023-02-01T08:28:37;30.95;;;4.88;;
37455;SDS011;23316;50.718;7.328;2023-02-01T08:31:06;28.88;;;4.60;;
37455;SDS011;23316;50.718;7.328;2023-02-01T08:33:34;32.00;;;4.25;;
37455;SDS011;23316;50.718;7.328;2023-02-01T08:36:03;25.50;;;4.50;;
37455;SDS011;23316;50.718;7.328;2023-02-01T08:38:34;21.90;;;4.03;;
37455;SDS011;23316;50.718;7.328;2023-02-01T08:41:03;21.25;;;4.40;;
37455;SDS011;23316;50.718;7.328;2023-02-01T08:43:32;20.75;;;4.05;;
37455;SDS011;23316;50.718;7.328;2023-02-01T08:45:59;25.48;;;3.65;;
37455;SDS011;23316;50.718;7.328;2023-02-01T08:48:26;21.25;;;4.47;;
37455;SDS011;23316;50.718;7.328;2023-02-01T08:50:54;28.98;;;5.50;;
37455;SDS011;23316;50.718;7.328;2023-02-01T08:53:21;33.20;;;5.20;;
37455;SDS011;23316;50.718;7.328;2023-02-01T08:55:50;32.42;;;4.68;;
37455;SDS011;23316;50.718;7.328;2023-02-01T08:58:17;22.88;;;4.05;;
37455;SDS011;23316;50.718;7.328;2023-02-01T09:00:45;21.38;;;4.40;;
37455;SDS011;23316;50.718;7.328;2023-02-01T09:03:13;26.48;;;4.43;;
37455;SDS011;23316;50.718;7.328;2023-02-01T09:05:41;27.52;;;4.82;;
37455;SDS011;23316;50.718;7.328;2023-02-01T09:08:08;30.25;;;4.88;;
37455;SDS011;23316;50.718;7.328;2023-02-01T09:10:37;20.58;;;4.15;;
37455;SDS011;23316;50.718;7.328;2023-02-01T09:13:06;28.23;;;4.00;;
37455;SDS011;23316;50.718;7.328;2023-02-01T09:15:33;23.80;;;4.32;;
37455;SDS011;23316;50.718;7.328;2023-02-01T09:18:01;35.20;;;4.70;;
37455;SDS011;23316;50.718;7.328;2023-02-01T09:20:28;32.67;;;4.90;;
37455;SDS011;23316;50.718;7.328;2023-02-01T09:22:55;31.50;;;4.00;;
37455;SDS011;23316;50.718;7.328;2023-02-01T09:25:23;26.70;;;4.93;;
37455;SDS011;23316;50.718;7.328;2023-02-01T09:27:50;29.17;;;4.35;;
37455;SDS011;23316;50.718;7.328;2023-02-01T09:30:18;29.20;;;4.93;;
37455;SDS011;23316;50.718;7.328;2023-02-01T09:32:46;28.67;;;4.38;;
37455;SDS011;23316;50.718;7.328;2023-02-01T09:35:13;22.25;;;3.45;;
37455;SDS011;23316;50.718;7.328;2023-02-01T09:37:40;25.60;;;4.47;;
37455;SDS011;23316;50.718;7.328;2023-02-01T09:40:09;20.67;;;3.80;;
37455;SDS011;23316;50.718;7.328;2023-02-01T09:42:58;21.27;;;3.53;;
37455;SDS011;23316;50.718;7.328;2023-02-01T09:45:41;21.23;;;3.97;;
37455;SDS011;23316;50.718;7.328;2023-02-01T09:48:15;23.55;;;3.90;;
37455;SDS011;23316;50.718;7.328;2023-02-01T09:50:47;23.30;;;3.70;;
37455;SDS011;23316;50.718;7.328;2023-02-01T09:53:18;17.95;;;3.67;;
37455;SDS011;23316;50.718;7.328;2023-02-01T09:55:50;15.35;;;2.95;;
37455;SDS011;23316;50.718;7.328;2023-02-01T09:58:22;19.80;;;3.38;;
37455;SDS011;23316;50.718;7.328;2023-02-01T10:00:54;23.90;;;4.53;;
37455;SDS011;23316;50.718;7.328;2023-02-01T10:03:24;20.85;;;3.63;;
37455;SDS011;23316;50.718;7.328;2023-02-01T10:06:01;18.15;;;3.10;;
37455;SDS011;23316;50.718;7.328;2023-02-01T10:08:51;22.67;;;3.72;;
37455;SDS011;23316;50.718;7.328;2023-02-01T10:11:39;21.98;;;3.50;;
37455;SDS011;23316;50.718;7.328;2023-02-01T10:14:30;22.90;;;4.03;;
37455;SDS011;23316;50.718;7.328;2023-02-01T10:17:15;25.42;;;4.10;;
37455;SDS011;23316;50.718;7.328;2023-02-01T10:19:51;19.33;;;3.60;;
37455;SDS011;23316;50.718;7.328;2023-02-01T10:22:32;20.13;;;3.25;;
37455;SDS011;23316;50.718;7.328;2023-02-01T10:25:07;18.17;;;3.28;;
37455;SDS011;23316;50.718;7.328;2023-02-01T10:27:41;26.15;;;3.88;;
37455;SDS011;23316;50.718;7.328;2023-02-01T10:30:14;16.95;;;3.47;;
37455;SDS011;23316;50.718;7.328;2023-02-01T10:32:47;19.00;;;3.88;;
37455;SDS011;23316;50.718;7.328;2023-02-01T10:35:18;16.17;;;3.20;;
37455;SDS011;23316;50.718;7.328;2023-02-01T10:37:50;17.15;;;2.75;;
37455;SDS011;23316;50.718;7.328;2023-02-01T10:40:19;31.92;;;4.63;;
37455;SDS011;23316;50.718;7.328;2023-02-01T10:42:49;19.30;;;3.42;;
37455;SDS011;23316;50.718;7.328;2023-02-01T10:45:18;22.38;;;3.60;;
37455;SDS011;23316;50.718;7.328;2023-02-01T10:47:49;15.05;;;3.22;;
37455;SDS011;23316;50.718;7.328;2023-02-01T10:50:20;22.55;;;3.80;;
37455;SDS011;23316;50.718;7.328;2023-02-01T10:52:58;15.55;;;3.30;;
37455;SDS011;23316;50.718;7.328;2023-02-01T10:55:38;19.58;;;3.40;;
37455;SDS011;23316;50.718;7.328;2023-02-01T10:58:14;19.27;;;3.42;;
37455;SDS011;23316;50.718;7.328;2023-02-01T11:00:44;30.30;;;4.50;;
37455;SDS011;23316;50.718;7.328;2023-02-01T11:03:22;16.15;;;3.22;;
37455;SDS011;23316;50.718;7.328;2023-02-01T11:06:01;22.90;;;3.70;;
37455;SDS011;23316;50.718;7.328;2023-02-01T11:08:41;20.60;;;3.45;;
37455;SDS011;23316;50.718;7.328;2023-02-01T11:11:10;18.27;;;3.63;;
37455;SDS011;23316;50.718;7.328;2023-02-01T11:13:39;17.17;;;4.05;;
37455;SDS011;23316;50.718;7.328;2023-02-01T11:16:08;18.38;;;3.30;;
37455;SDS011;23316;50.718;7.328;2023-02-01T11:18:40;17.58;;;3.78;;
37455;SDS011;23316;50.718;7.328;2023-02-01T11:21:08;21.63;;;3.25;;
37455;SDS011;23316;50.718;7.328;2023-02-01T11:23:40;18.50;;;3.25;;
37455;SDS011;23316;50.718;7.328;2023-02-01T11:26:11;21.05;;;3.45;;
37455;SDS011;23316;50.718;7.328;2023-02-01T11:28:43;19.17;;;3.40;;
37455;SDS011;23316;50.718;7.328;2023-02-01T11:31:19;17.42;;;3.13;;
37455;SDS011;23316;50.718;7.328;2023-02-01T11:33:49;19.05;;;4.10;;
37455;SDS011;23316;50.718;7.328;2023-02-01T11:36:21;16.73;;;2.90;;
37455;SDS011;23316;50.718;7.328;2023-02-01T11:38:52;20.10;;;4.18;;
37455;SDS011;23316;50.718;7.328;2023-02-01T11:41:34;21.67;;;4.07;;
37455;SDS011;23316;50.718;7.328;2023-02-01T11:44:26;17.42;;;3.03;;
37455;SDS011;23316;50.718;7.328;2023-02-01T11:49:53;15.93;;;3.05;;
37455;SDS011;23316;50.718;7.328;2023-02-01T11:52:26;14.90;;;2.70;;
37455;SDS011;23316;50.718;7.328;2023-02-01T11:58:12;25.10;;;3.90;;
37455;SDS011;23316;50.718;7.328;2023-02-01T12:01:04;18.42;;;3.30;;
37455;SDS011;23316;50.718;7.328;2023-02-01T12:03:48;23.10;;;3.90;;
37455;SDS011;23316;50.718;7.328;2023-02-01T12:06:38;17.10;;;3.03;;
37455;SDS011;23316;50.718;7.328;2023-02-01T12:09:17;17.02;;;2.65;;
37455;SDS011;23316;50.718;7.328;2023-02-01T12:11:57;21.17;;;3.38;;
37455;SDS011;23316;50.718;7.328;2023-02-01T12:14:36;14.98;;;3.30;;
37455;SDS011;23316;50.718;7.328;2023-02-01T12:17:18;16.35;;;3.50;;
37455;SDS011;23316;50.718;7.328;2023-02-01T12:20:08;19.15;;;2.88;;
37455;SDS011;23316;50.718;7.328;2023-02-01T12:22:53;19.13;;;3.60;;
37455;SDS011;23316;50.718;7.328;2023-02-01T12:25:31;17.55;;;3.47;;
37455;SDS011;23316;50.718;7.328;2023-02-01T12:28:16;18.27;;;3.80;;
37455;SDS011;23316;50.718;7.328;2023-02-01T12:31:10;16.83;;;3.58;;
37455;SDS011;23316;50.718;7.328;2023-02-01T12:36:57;23.55;;;3.45;;
37455;SDS011;23316;50.718;7.328;2023-02-01T12:39:36;15.05;;;3.30;;
37455;SDS011;23316;50.718;7.328;2023-02-01T12:42:09;27.08;;;4.60;;
37455;SDS011;23316;50.718;7.328;2023-02-01T12:44:43;21.85;;;3.05;;
37455;SDS011;23316;50.718;7.328;2023-02-01T12:47:16;15.07;;;2.92;;
37455;SDS011;23316;50.718;7.328;2023-02-01T12:49:51;18.58;;;3.38;;
37455;SDS011;23316;50.718;7.328;2023-02-01T12:52:26;13.50;;;2.95;;
37455;SDS011;23316;50.718;7.328;2023-02-01T12:55:03;19.60;;;3.35;;
37455;SDS011;23316;50.718;7.328;2023-02-01T13:00:13;17.00;;;2.80;;
37455;SDS011;23316;50.718;7.328;2023-02-01T13:02:50;14.57;;;3.25;;
37455;SDS011;23316;50.718;7.328;2023-02-01T13:05:21;16.77;;;2.60;;
37455;SDS011;23316;50.718;7.328;2023-02-01T13:07:52;18.90;;;2.85;;
37455;SDS011;23316;50.718;7.328;2023-02-01T13:10:27;17.48;;;2.90;;
37455;SDS011;23316;50.718;7.328;2023-02-01T13:13:04;15.18;;;2.70;;
37455;SDS011;23316;50.718;7.328;2023-02-01T13:15:39;19.10;;;3.28;;
37455;SDS011;23316;50.718;7.328;2023-02-01T13:18:11;13.40;;;3.00;;
37455;SDS011;23316;50.718;7.328;2023-02-01T13:20:46;17.23;;;2.80;;
37455;SDS011;23316;50.718;7.328;2023-02-01T13:23:22;17.55;;;2.95;;
37455;SDS011;23316;50.718;7.328;2023-02-01T13:28:23;17.08;;;2.75;;
37455;SDS011;23316;50.718;7.328;2023-02-01T13:30:58;23.77;;;3.90;;
37455;SDS011;23316;50.718;7.328;2023-02-01T13:36:28;23.40;;;3.15;;
37455;SDS011;23316;50.718;7.328;2023-02-01T13:42:11;12.77;;;2.70;;
37455;SDS011;23316;50.718;7.328;2023-02-01T13:44:43;13.38;;;2.92;;
37455;SDS011;23316;50.718;7.328;2023-02-01T13:47:16;20.30;;;2.88;;
37455;SDS011;23316;50.718;7.328;2023-02-01T13:49:49;15.20;;;3.90;;
37455;SDS011;23316;50.718;7.328;2023-02-01T13:52:25;18.92;;;4.18;;
37455;SDS011;23316;50.718;7.328;2023-02-01T13:55:00;22.27;;;3.78;;
37455;SDS011;23316;50.718;7.328;2023-02-01T13:58:02;16.98;;;2.70;;
37455;SDS011;23316;50.718;7.328;2023-02-01T14:00:39;26.65;;;3.60;;
37455;SDS011;23316;50.718;7.328;2023-02-01T14:03:12;14.27;;;2.80;;
37455;SDS011;23316;50.718;7.328;2023-02-01T14:05:55;13.18;;;2.33;;
37455;SDS011;23316;50.718;7.328;2023-02-01T14:08:38;17.48;;;2.60;;
37455;SDS011;23316;50.718;7.328;2023-02-01T14:23:11;16.70;;;2.67;;
37455;SDS011;23316;50.718;7.328;2023-02-01T14:25:42;17.73;;;3.33;;
37455;SDS011;23316;50.718;7.328;2023-02-01T14:28:11;18.75;;;3.15;;
37455;SDS011;23316;50.718;7.328;2023-02-01T14:30:47;20.17;;;2.85;;
37455;SDS011;23316;50.718;7.328;2023-02-01T14:33:20;13.02;;;2.65;;
37455;SDS011;23316;50.718;7.328;2023-02-01T14:38:23;17.33;;;3.05;;
37455;SDS011;23316;50.718;7.328;2023-02-01T14:40:51;14.63;;;2.63;;
37455;SDS011;23316;50.718;7.328;2023-02-01T14:46:16;20.73;;;2.90;;
37455;SDS011;23316;50.718;7.328;2023-02-01T14:48:45;12.52;;;2.60;;
37455;SDS011;23316;50.718;7.328;2023-02-01T14:51:14;17.90;;;3.25;;
37455;SDS011;23316;50.718;7.328;2023-02-01T14:53:44;21.05;;;3.10;;
37455;SDS011;23316;50.718;7.328;2023-02-01T14:56:13;22.13;;;2.47;;
37455;SDS011;23316;50.718;7.328;2023-02-01T14:58:48;21.00;;;3.53;;
37455;SDS011;23316;50.718;7.328;2023-02-01T15:01:20;16.15;;;2.42;;
37455;SDS011;23316;50.718;7.328;2023-02-01T15:03:55;14.98;;;3.05;;
37455;SDS011;23316;50.718;7.328;2023-02-01T15:06:26;12.65;;;2.55;;
37455;SDS011;23316;50.718;7.328;2023-02-01T15:08:58;17.17;;;2.90;;
37455;SDS011;23316;50.718;7.328;2023-02-01T15:11:28;20.10;;;2.28;;
37455;SDS011;23316;50.718;7.328;2023-02-01T15:13:56;15.20;;;2.45;;
37455;SDS011;23316;50.718;7.328;2023-02-01T15:16:25;14.95;;;2.75;;
37455;SDS011;23316;50.718;7.328;2023-02-01T15:19:10;16.88;;;2.70;;
37455;SDS011;23316;50.718;7.328;2023-02-01T15:21:44;14.32;;;3.10;;
37455;SDS011;23316;50.718;7.328;2023-02-01T15:24:13;10.40;;;2.50;;
37455;SDS011;23316;50.718;7.328;2023-02-01T15:26:41;16.88;;;2.40;;
37455;SDS011;23316;50.718;7.328;2023-02-01T15:29:10;22.92;;;2.85;;
37455;SDS011;23316;50.718;7.328;2023-02-01T15:31:39;10.60;;;2.97;;
37455;SDS011;23316;50.718;7.328;2023-02-01T15:34:09;13.98;;;2.83;;
37455;SDS011;23316;50.718;7.328;2023-02-01T15:36:38;10.85;;;2.22;;
37455;SDS011;23316;50.718;7.328;2023-02-01T15:39:16;13.35;;;2.20;;
37455;SDS011;23316;50.718;7.328;2023-02-01T15:41:49;12.32;;;2.47;;
37455;SDS011;23316;50.718;7.328;2023-02-01T15:44:19;14.25;;;2.40;;
37455;SDS011;23316;50.718;7.328;2023-02-01T15:46:58;14.82;;;2.50;;